sensor_id;sensor_type;location;lat;lon;timestamp;pressure;altitude;pressure_sealevel;temperature;humidity
60337;BME280;46978;50.288;28.624;2023-12-28T00:00:26;99608.02;;;0.71;70.65
60337;BME280;46978;50.288;28.624;2023-12-28T00:01:27;99619.89;;;0.69;70.59
60337;BME280;46978;50.288;28.624;2023-12-28T00:02:29;99614.70;;;0.66;70.77
60337;BME280;46978;50.288;28.624;2023-12-28T00:03:31;99616.37;;;0.64;70.67
60337;BME280;46978;50.288;28.624;2023-12-28T00:04:33;99617.19;;;0.63;70.86
60337;BME280;46978;50.288;28.624;2023-12-28T00:05:34;99618.80;;;0.59;71.07
60337;BME280;46978;50.288;28.624;2023-12-28T00:06:36;99622.13;;;0.57;71.19
60337;BME280;46978;50.288;28.624;2023-12-28T00:07:38;99625.53;;;0.57;70.94
60337;BME280;46978;50.288;28.624;2023-12-28T00:08:40;99628.94;;;0.56;70.81
60337;BME280;46978;50.288;28.624;2023-12-28T00:09:42;99622.09;;;0.55;70.84
60337;BME280;46978;50.288;28.624;2023-12-28T00:10:43;99627.20;;;0.55;70.87
60337;BME280;46978;50.288;28.624;2023-12-28T00:11:45;99622.05;;;0.53;71.60
60337;BME280;46978;50.288;28.624;2023-12-28T00:12:47;99632.27;;;0.53;71.08
60337;BME280;46978;50.288;28.624;2023-12-28T00:13:49;99629.70;;;0.53;71.24
60337;BME280;46978;50.288;28.624;2023-12-28T00:14:51;99632.18;;;0.50;71.65
60337;BME280;46978;50.288;28.624;2023-12-28T00:15:53;99632.18;;;0.50;71.65
60337;BME280;46978;50.288;28.624;2023-12-28T00:16:54;99641.54;;;0.50;71.88
60337;BME280;46978;50.288;28.624;2023-12-28T00:17:56;99646.61;;;0.48;71.97
60337;BME280;46978;50.288;28.624;2023-12-28T00:18:58;99648.23;;;0.46;71.88
60337;BME280;46978;50.288;28.624;2023-12-28T00:19:59;99648.23;;;0.46;71.20
60337;BME280;46978;50.288;28.624;2023-12-28T00:21:01;99658.53;;;0.49;71.08
60337;BME280;46978;50.288;28.624;2023-12-28T00:22:03;99656.86;;;0.50;71.40
60337;BME280;46978;50.288;28.624;2023-12-28T00:23:05;99673.03;;;0.50;71.40
60337;BME280;46978;50.288;28.624;2023-12-28T00:24:06;99677.33;;;0.51;71.04
60337;BME280;46978;50.288;28.624;2023-12-28T00:25:08;99671.33;;;0.51;71.32
60337;BME280;46978;50.288;28.624;2023-12-28T00:26:11;99675.58;;;0.50;71.35
60337;BME280;46978;50.288;28.624;2023-12-28T00:27:12;99672.14;;;0.48;71.19
60337;BME280;46978;50.288;28.624;2023-12-28T00:28:14;99670.39;;;0.47;71.20
60337;BME280;46978;50.288;28.624;2023-12-28T00:29:16;99670.35;;;0.46;71.57
60337;BME280;46978;50.288;28.624;2023-12-28T00:30:18;99666.91;;;0.44;71.61
60337;BME280;46978;50.288;28.624;2023-12-28T00:31:19;99666.86;;;0.42;71.80
60337;BME280;46978;50.288;28.624;2023-12-28T00:32:21;99667.63;;;0.40;71.96
60337;BME280;46978;50.288;28.624;2023-12-28T00:33:23;99674.39;;;0.38;72.15
60337;BME280;46978;50.288;28.624;2023-12-28T00:34:24;99676.86;;;0.34;71.87
60337;BME280;46978;50.288;28.624;2023-12-28T00:35:26;99680.22;;;0.33;71.81
60337;BME280;46978;50.288;28.624;2023-12-28T00:36:28;99677.67;;;0.33;72.24
60337;BME280;46978;50.288;28.624;2023-12-28T00:37:29;99684.39;;;0.30;72.36
60337;BME280;46978;50.288;28.624;2023-12-28T00:38:31;99676.69;;;0.28;72.69
60337;BME280;46978;50.288;28.624;2023-12-28T00:39:33;99681.70;;;0.25;72.77
60337;BME280;46978;50.288;28.624;2023-12-28T00:40:34;99685.88;;;0.23;72.81
60337;BME280;46978;50.288;28.624;2023-12-28T00:41:36;99679.88;;;0.21;73.03
60337;BME280;46978;50.288;28.624;2023-12-28T00:42:38;99685.74;;;0.18;73.05
60337;BME280;46978;50.288;28.624;2023-12-28T00:43:40;99686.59;;;0.17;73.53
60337;BME280;46978;50.288;28.624;2023-12-28T00:44:41;99686.55;;;0.16;73.54
60337;BME280;46978;50.288;28.624;2023-12-28T00:45:43;99689.91;;;0.15;73.26
60337;BME280;46978;50.288;28.624;2023-12-28T00:46:44;99689.00;;;0.13;73.48
60337;BME280;46978;50.288;28.624;2023-12-28T00:47:46;99686.36;;;0.10;73.47
60337;BME280;46978;50.288;28.624;2023-12-28T00:48:48;99686.32;;;0.08;73.64
60337;BME280;46978;50.288;28.624;2023-12-28T00:49:50;99683.81;;;0.10;73.74
60337;BME280;46978;50.288;28.624;2023-12-28T00:50:52;99682.07;;;0.09;73.77
60337;BME280;46978;50.288;28.624;2023-12-28T00:51:54;99681.22;;;0.08;73.88
60337;BME280;46978;50.288;28.624;2023-12-28T00:52:56;99684.58;;;0.07;73.89
60337;BME280;46978;50.288;28.624;2023-12-28T00:53:57;99680.28;;;0.06;73.89
60337;BME280;46978;50.288;28.624;2023-12-28T00:54:59;99681.17;;;0.07;73.95
60337;BME280;46978;50.288;28.624;2023-12-28T00:56:01;99678.58;;;0.05;74.05
60337;BME280;46978;50.288;28.624;2023-12-28T00:57:05;99684.48;;;0.04;74.21
60337;BME280;46978;50.288;28.624;2023-12-28T00:58:07;99680.20;;;0.03;74.23
60337;BME280;46978;50.288;28.624;2023-12-28T00:59:09;99674.19;;;0.01;74.42
60337;BME280;46978;50.288;28.624;2023-12-28T01:00:11;99671.55;;;-0.02;74.58
60337;BME280;46978;50.288;28.624;2023-12-28T01:01:13;99668.87;;;-0.07;75.03
60337;BME280;46978;50.288;28.624;2023-12-28T01:02:15;99669.62;;;-0.11;75.12
60337;BME280;46978;50.288;28.624;2023-12-28T01:03:16;99671.23;;;-0.13;75.04
60337;BME280;46978;50.288;28.624;2023-12-28T01:04:18;99668.64;;;-0.14;75.09
60337;BME280;46978;50.288;28.624;2023-12-28T01:05:20;99670.34;;;-0.15;75.24
60337;BME280;46978;50.288;28.624;2023-12-28T01:06:23;99677.13;;;-0.15;75.33
60337;BME280;46978;50.288;28.624;2023-12-28T01:07:25;99675.34;;;-0.18;75.83
60337;BME280;46978;50.288;28.624;2023-12-28T01:08:26;99675.34;;;-0.18;75.83
60337;BME280;46978;50.288;28.624;2023-12-28T01:09:28;99671.89;;;-0.20;76.10
60337;BME280;46978;50.288;28.624;2023-12-28T01:10:30;99667.55;;;-0.23;76.22
60337;BME280;46978;50.288;28.624;2023-12-28T01:11:32;99662.36;;;-0.26;76.27
60337;BME280;46978;50.288;28.624;2023-12-28T01:12:34;99669.92;;;-0.29;76.52
60337;BME280;46978;50.288;28.624;2023-12-28T01:13:35;99677.52;;;-0.30;76.79
60337;BME280;46978;50.288;28.624;2023-12-28T01:14:37;99680.78;;;-0.34;76.93
60337;BME280;46978;50.288;28.624;2023-12-28T01:15:39;99671.38;;;-0.37;77.14
60337;BME280;46978;50.288;28.624;2023-12-28T01:16:41;99678.94;;;-0.40;77.71
60337;BME280;46978;50.288;28.624;2023-12-28T01:17:43;99675.41;;;-0.44;77.78
60337;BME280;46978;50.288;28.624;2023-12-28T01:18:44;99666.80;;;-0.47;78.20
60337;BME280;46978;50.288;28.624;2023-12-28T01:19:46;99668.41;;;-0.51;78.59
60337;BME280;46978;50.288;28.624;2023-12-28T01:20:48;99666.61;;;-0.53;78.68
60337;BME280;46978;50.288;28.624;2023-12-28T01:21:50;99657.97;;;-0.59;79.00
60337;BME280;46978;50.288;28.624;2023-12-28T01:22:51;99662.12;;;-0.61;79.14
60337;BME280;46978;50.288;28.624;2023-12-28T01:23:53;99662.97;;;-0.62;79.41
60337;BME280;46978;50.288;28.624;2023-12-28T01:24:55;99664.53;;;-0.65;79.40
60337;BME280;46978;50.288;28.624;2023-12-28T01:25:56;99669.62;;;-0.65;79.74
60337;BME280;46978;50.288;28.624;2023-12-28T01:26:58;99661.08;;;-0.67;79.99
60337;BME280;46978;50.288;28.624;2023-12-28T01:28:00;99657.58;;;-0.71;80.08
60337;BME280;46978;50.288;28.624;2023-12-28T01:29:01;99659.19;;;-0.73;80.33
60337;BME280;46978;50.288;28.624;2023-12-28T01:30:05;99661.64;;;-0.76;80.60
60337;BME280;46978;50.288;28.624;2023-12-28T01:31:07;99660.73;;;-0.78;80.82
60337;BME280;46978;50.288;28.624;2023-12-28T01:32:08;99663.13;;;-0.83;80.90
60337;BME280;46978;50.288;28.624;2023-12-28T01:33:10;99665.58;;;-0.86;81.44
60337;BME280;46978;50.288;28.624;2023-12-28T01:34:12;99667.93;;;-0.92;81.18
60337;BME280;46978;50.288;28.624;2023-12-28T01:35:14;99667.93;;;-0.92;81.18
60337;BME280;46978;50.288;28.624;2023-12-28T01:36:18;99669.57;;;-0.94;82.21
60337;BME280;46978;50.288;28.624;2023-12-28T01:37:20;99666.13;;;-0.95;82.10
60337;BME280;46978;50.288;28.624;2023-12-28T01:38:22;99668.58;;;-0.98;82.20
60337;BME280;46978;50.288;28.624;2023-12-28T01:39:23;99666.92;;;-0.97;82.68
60337;BME280;46978;50.288;28.624;2023-12-28T01:40:25;99667.67;;;-1.00;82.56
60337;BME280;46978;50.288;28.624;2023-12-28T01:41:27;99666.82;;;-1.00;82.90
60337;BME280;46978;50.288;28.624;2023-12-28T01:42:29;99654.94;;;-1.00;83.07
60337;BME280;46978;50.288;28.624;2023-12-28T01:43:30;99664.22;;;-1.02;83.09
60337;BME280;46978;50.288;28.624;2023-12-28T01:44:32;99652.30;;;-1.03;83.19
60337;BME280;46978;50.288;28.624;2023-12-28T01:45:34;99647.05;;;-1.07;82.93
60337;BME280;46978;50.288;28.624;2023-12-28T01:46:36;99650.34;;;-1.10;83.53
60337;BME280;46978;50.288;28.624;2023-12-28T01:47:37;99647.75;;;-1.12;83.71
60337;BME280;46978;50.288;28.624;2023-12-28T01:48:40;99649.44;;;-1.12;83.63
60337;BME280;46978;50.288;28.624;2023-12-28T01:49:43;99655.34;;;-1.13;84.20
60337;BME280;46978;50.288;28.624;2023-12-28T01:50:45;99654.53;;;-1.12;84.22
60337;BME280;46978;50.288;28.624;2023-12-28T01:51:47;99662.17;;;-1.12;84.25
60337;BME280;46978;50.288;28.624;2023-12-28T01:52:50;99661.27;;;-1.14;84.57
60337;BME280;46978;50.288;28.624;2023-12-28T01:53:53;99662.07;;;-1.15;84.64
60337;BME280;46978;50.288;28.624;2023-12-28T01:54:55;99663.70;;;-1.17;84.74
60337;BME280;46978;50.288;28.624;2023-12-28T01:55:57;99662.82;;;-1.18;84.79
60337;BME280;46978;50.288;28.624;2023-12-28T01:57:01;99666.25;;;-1.17;84.95
60337;BME280;46978;50.288;28.624;2023-12-28T01:58:04;99661.97;;;-1.18;84.94
60337;BME280;46978;50.288;28.624;2023-12-28T01:59:06;99658.56;;;-1.19;84.97
60337;BME280;46978;50.288;28.624;2023-12-28T02:00:09;99661.97;;;-1.18;85.04
60337;BME280;46978;50.288;28.624;2023-12-28T02:01:11;99668.75;;;-1.19;85.33
60337;BME280;46978;50.288;28.624;2023-12-28T02:02:13;99668.59;;;-1.23;85.24
60337;BME280;46978;50.288;28.624;2023-12-28T02:03:16;99671.14;;;-1.23;85.42
60337;BME280;46978;50.288;28.624;2023-12-28T02:04:17;99682.13;;;-1.24;85.72
60337;BME280;46978;50.288;28.624;2023-12-28T02:05:19;99676.93;;;-1.28;85.76
60337;BME280;46978;50.288;28.624;2023-12-28T02:06:23;99680.22;;;-1.30;86.00
60337;BME280;46978;50.288;28.624;2023-12-28T02:07:25;99676.77;;;-1.32;86.13
60337;BME280;46978;50.288;28.624;2023-12-28T02:08:27;99674.17;;;-1.34;86.24
60337;BME280;46978;50.288;28.624;2023-12-28T02:09:29;99683.45;;;-1.36;86.22
60337;BME280;46978;50.288;28.624;2023-12-28T02:10:31;99672.36;;;-1.38;86.51
60337;BME280;46978;50.288;28.624;2023-12-28T02:11:32;99676.50;;;-1.40;86.83
60337;BME280;46978;50.288;28.624;2023-12-28T02:12:34;99680.73;;;-1.40;86.95
60337;BME280;46978;50.288;28.624;2023-12-28T02:13:36;99680.73;;;-1.40;86.87
60337;BME280;46978;50.288;28.624;2023-12-28T02:14:38;99682.38;;;-1.42;87.14
60337;BME280;46978;50.288;28.624;2023-12-28T02:15:40;99675.48;;;-1.45;87.33
60337;BME280;46978;50.288;28.624;2023-12-28T02:16:49;99681.37;;;-1.46;87.47
60337;BME280;46978;50.288;28.624;2023-12-28T02:17:59;99674.58;;;-1.47;87.28
60337;BME280;46978;50.288;28.624;2023-12-28T02:19:06;99676.23;;;-1.48;87.42
60337;BME280;46978;50.288;28.624;2023-12-28T02:20:08;99677.92;;;-1.48;87.59
60337;BME280;46978;50.288;28.624;2023-12-28T02:21:13;99676.18;;;-1.49;87.77
60337;BME280;46978;50.288;28.624;2023-12-28T02:22:16;99678.67;;;-1.51;87.72
60337;BME280;46978;50.288;28.624;2023-12-28T02:23:17;99673.53;;;-1.52;87.90
60337;BME280;46978;50.288;28.624;2023-12-28T02:24:19;99672.62;;;-1.54;87.82
60337;BME280;46978;50.288;28.624;2023-12-28T02:25:21;99673.42;;;-1.55;88.33
60337;BME280;46978;50.288;28.624;2023-12-28T02:26:23;99674.14;;;-1.59;88.26
60337;BME280;46978;50.288;28.624;2023-12-28T02:27:24;99672.34;;;-1.62;88.33
60337;BME280;46978;50.288;28.624;2023-12-28T02:28:26;99674.83;;;-1.64;88.86
60337;BME280;46978;50.288;28.624;2023-12-28T02:29:28;99680.83;;;-1.62;88.88
60337;BME280;46978;50.288;28.624;2023-12-28T02:30:30;99678.23;;;-1.63;88.63
60337;BME280;46978;50.288;28.624;2023-12-28T02:31:43;99679.81;;;-1.67;88.75
60337;BME280;46978;50.288;28.624;2023-12-28T02:33:00;99672.98;;;-1.68;89.20
60337;BME280;46978;50.288;28.624;2023-12-28T02:34:04;99675.58;;;-1.66;89.45
60337;BME280;46978;50.288;28.624;2023-12-28T02:35:16;99682.47;;;-1.64;89.32
60337;BME280;46978;50.288;28.624;2023-12-28T02:36:22;99682.36;;;-1.67;89.16
60337;BME280;46978;50.288;28.624;2023-12-28T02:37:25;99686.59;;;-1.67;89.43
60337;BME280;46978;50.288;28.624;2023-12-28T02:38:29;99695.02;;;-1.68;89.61
60337;BME280;46978;50.288;28.624;2023-12-28T02:39:32;99691.57;;;-1.70;89.64
60337;BME280;46978;50.288;28.624;2023-12-28T02:40:37;99694.91;;;-1.71;89.87
60337;BME280;46978;50.288;28.624;2023-12-28T02:41:39;99694.05;;;-1.72;90.01
60337;BME280;46978;50.288;28.624;2023-12-28T02:42:41;99689.71;;;-1.74;90.10
60337;BME280;46978;50.288;28.624;2023-12-28T02:43:43;99693.05;;;-1.75;90.11
60337;BME280;46978;50.288;28.624;2023-12-28T02:44:44;99687.91;;;-1.77;90.20
60337;BME280;46978;50.288;28.624;2023-12-28T02:45:46;99690.40;;;-1.78;90.39
60337;BME280;46978;50.288;28.624;2023-12-28T02:46:48;99676.77;;;-1.81;90.51
60337;BME280;46978;50.288;28.624;2023-12-28T02:47:49;99674.86;;;-1.86;90.00
60337;BME280;46978;50.288;28.624;2023-12-28T02:48:51;99666.26;;;-1.90;90.19
60337;BME280;46978;50.288;28.624;2023-12-28T02:49:53;99673.77;;;-1.93;90.02
60337;BME280;46978;50.288;28.624;2023-12-28T02:50:55;99677.00;;;-1.97;90.49
60337;BME280;46978;50.288;28.624;2023-12-28T02:51:56;99679.48;;;-1.99;90.81
60337;BME280;46978;50.288;28.624;2023-12-28T02:52:59;99681.12;;;-2.01;91.35
60337;BME280;46978;50.288;28.624;2023-12-28T02:54:01;99677.66;;;-2.03;91.59
60337;BME280;46978;50.288;28.624;2023-12-28T02:55:03;99685.23;;;-2.04;91.67
60337;BME280;46978;50.288;28.624;2023-12-28T02:56:06;99675.92;;;-2.04;91.76
60337;BME280;46978;50.288;28.624;2023-12-28T02:57:08;99682.64;;;-2.06;91.78
60337;BME280;46978;50.288;28.624;2023-12-28T02:58:10;99698.63;;;-2.08;92.37
60337;BME280;46978;50.288;28.624;2023-12-28T02:59:11;99698.63;;;-2.08;92.37
60337;BME280;46978;50.288;28.624;2023-12-28T03:00:15;99696.89;;;-2.09;92.14
60337;BME280;46978;50.288;28.624;2023-12-28T03:01:17;99702.80;;;-2.10;92.30
60337;BME280;46978;50.288;28.624;2023-12-28T03:02:19;99698.45;;;-2.13;92.30
60337;BME280;46978;50.288;28.624;2023-12-28T03:03:20;99694.17;;;-2.14;92.50
60337;BME280;46978;50.288;28.624;2023-12-28T03:04:22;99703.48;;;-2.14;92.71
60337;BME280;46978;50.288;28.624;2023-12-28T03:05:23;99696.66;;;-2.16;92.92
60337;BME280;46978;50.288;28.624;2023-12-28T03:06:25;99697.48;;;-2.17;92.63
60337;BME280;46978;50.288;28.624;2023-12-28T03:07:27;99693.20;;;-2.18;92.78
60337;BME280;46978;50.288;28.624;2023-12-28T03:08:28;99689.80;;;-2.18;93.46
60337;BME280;46978;50.288;28.624;2023-12-28T03:09:30;99691.51;;;-2.17;93.40
60337;BME280;46978;50.288;28.624;2023-12-28T03:10:32;99696.59;;;-2.17;93.58
60337;BME280;46978;50.288;28.624;2023-12-28T03:11:34;99691.51;;;-2.17;93.71
60337;BME280;46978;50.288;28.624;2023-12-28T03:12:35;99694.11;;;-2.16;93.77
60337;BME280;46978;50.288;28.624;2023-12-28T03:13:37;99695.86;;;-2.14;93.77
60337;BME280;46978;50.288;28.624;2023-12-28T03:14:39;99697.60;;;-2.13;93.84
60337;BME280;46978;50.288;28.624;2023-12-28T03:15:40;99706.02;;;-2.14;94.05
60337;BME280;46978;50.288;28.624;2023-12-28T03:16:42;99700.14;;;-2.13;93.92
60337;BME280;46978;50.288;28.624;2023-12-28T03:17:44;99701.00;;;-2.13;93.98
60337;BME280;46978;50.288;28.624;2023-12-28T03:18:45;99705.23;;;-2.13;93.75
60337;BME280;46978;50.288;28.624;2023-12-28T03:19:47;99702.63;;;-2.15;93.42
60337;BME280;46978;50.288;28.624;2023-12-28T03:20:49;99698.28;;;-2.18;93.40
60337;BME280;46978;50.288;28.624;2023-12-28T03:21:50;99705.05;;;-2.18;93.75
60337;BME280;46978;50.288;28.624;2023-12-28T03:22:52;99699.91;;;-2.20;93.72
60337;BME280;46978;50.288;28.624;2023-12-28T03:23:54;99696.48;;;-2.20;93.78
60337;BME280;46978;50.288;28.624;2023-12-28T03:24:55;99698.16;;;-2.21;94.01
60337;BME280;46978;50.288;28.624;2023-12-28T03:25:57;99687.99;;;-2.21;94.16
60337;BME280;46978;50.288;28.624;2023-12-28T03:26:59;99684.59;;;-2.21;94.16
60337;BME280;46978;50.288;28.624;2023-12-28T03:28:00;99693.08;;;-2.21;94.41
60337;BME280;46978;50.288;28.624;2023-12-28T03:29:02;99688.84;;;-2.20;94.47
60337;BME280;46978;50.288;28.624;2023-12-28T03:30:04;99684.66;;;-2.20;94.39
60337;BME280;46978;50.288;28.624;2023-12-28T03:31:06;99685.51;;;-2.19;94.72
60337;BME280;46978;50.288;28.624;2023-12-28T03:32:08;99684.71;;;-2.18;94.54
60337;BME280;46978;50.288;28.624;2023-12-28T03:33:10;99679.63;;;-2.18;94.74
60337;BME280;46978;50.288;28.624;2023-12-28T03:34:12;99680.42;;;-2.19;94.64
60337;BME280;46978;50.288;28.624;2023-12-28T03:35:13;99677.03;;;-2.20;94.90
60337;BME280;46978;50.288;28.624;2023-12-28T03:36:19;99681.22;;;-2.20;94.59
60337;BME280;46978;50.288;28.624;2023-12-28T03:37:20;99682.85;;;-2.22;94.42
60337;BME280;46978;50.288;28.624;2023-12-28T03:38:22;99678.63;;;-2.22;94.69
60337;BME280;46978;50.288;28.624;2023-12-28T03:39:24;99680.31;;;-2.22;94.67
60337;BME280;46978;50.288;28.624;2023-12-28T03:40:26;99687.87;;;-2.24;94.48
60337;BME280;46978;50.288;28.624;2023-12-28T03:41:28;99680.19;;;-2.25;94.52
60337;BME280;46978;50.288;28.624;2023-12-28T03:42:29;99691.09;;;-2.28;94.45
60337;BME280;46978;50.288;28.624;2023-12-28T03:43:31;99693.58;;;-2.29;94.44
60337;BME280;46978;50.288;28.624;2023-12-28T03:44:32;99681.70;;;-2.30;94.52
60337;BME280;46978;50.288;28.624;2023-12-28T03:45:34;99685.89;;;-2.31;94.53
60337;BME280;46978;50.288;28.624;2023-12-28T03:46:36;99679.04;;;-2.33;94.62
60337;BME280;46978;50.288;28.624;2023-12-28T03:47:38;99684.98;;;-2.33;95.04
60337;BME280;46978;50.288;28.624;2023-12-28T03:48:40;99686.67;;;-2.33;95.24
60337;BME280;46978;50.288;28.624;2023-12-28T03:49:42;99689.14;;;-2.35;95.32
60337;BME280;46978;50.288;28.624;2023-12-28T03:50:43;99694.23;;;-2.35;95.30
60337;BME280;46978;50.288;28.624;2023-12-28T03:51:45;99693.22;;;-2.39;95.27
60337;BME280;46978;50.288;28.624;2023-12-28T03:52:47;99694.05;;;-2.40;95.11
60337;BME280;46978;50.288;28.624;2023-12-28T03:53:49;99696.59;;;-2.40;95.32
60337;BME280;46978;50.288;28.624;2023-12-28T03:54:50;99699.93;;;-2.41;95.30
60337;BME280;46978;50.288;28.624;2023-12-28T03:55:52;99694.73;;;-2.44;95.22
60337;BME280;46978;50.288;28.624;2023-12-28T03:56:54;99695.59;;;-2.43;95.62
60337;BME280;46978;50.288;28.624;2023-12-28T03:57:56;99692.19;;;-2.44;95.59
60337;BME280;46978;50.288;28.624;2023-12-28T03:58:57;99696.35;;;-2.46;95.37
60337;BME280;46978;50.288;28.624;2023-12-28T03:59:59;99703.09;;;-2.46;95.35
60337;BME280;46978;50.288;28.624;2023-12-28T04:01:01;99697.88;;;-2.49;95.39
60337;BME280;46978;50.288;28.624;2023-12-28T04:02:03;99700.36;;;-2.51;95.33
60337;BME280;46978;50.288;28.624;2023-12-28T04:03:05;99692.67;;;-2.53;95.48
60337;BME280;46978;50.288;28.624;2023-12-28T04:04:06;99692.62;;;-2.54;95.54
60337;BME280;46978;50.288;28.624;2023-12-28T04:05:08;99688.36;;;-2.55;95.62
60337;BME280;46978;50.288;28.624;2023-12-28T04:06:11;99690.84;;;-2.57;95.70
60337;BME280;46978;50.288;28.624;2023-12-28T04:07:13;99688.19;;;-2.60;95.62
60337;BME280;46978;50.288;28.624;2023-12-28T04:08:15;99685.58;;;-2.61;95.68
60337;BME280;46978;50.288;28.624;2023-12-28T04:09:16;99688.92;;;-2.62;95.74
60337;BME280;46978;50.288;28.624;2023-12-28T04:10:28;99692.28;;;-2.63;95.84
60337;BME280;46978;50.288;28.624;2023-12-28T04:11:24;99690.54;;;-2.64;96.00
60337;BME280;46978;50.288;28.624;2023-12-28T04:12:25;99694.83;;;-2.63;96.54
60337;BME280;46978;50.288;28.624;2023-12-28T04:13:27;99694.70;;;-2.66;96.32
60337;BME280;46978;50.288;28.624;2023-12-28T04:14:28;99701.50;;;-2.65;96.70
60337;BME280;46978;50.288;28.624;2023-12-28T04:15:30;99697.24;;;-2.66;97.05
60337;BME280;46978;50.288;28.624;2023-12-28T04:16:32;99696.36;;;-2.67;96.94
60337;BME280;46978;50.288;28.624;2023-12-28T04:17:34;99693.81;;;-2.67;97.17
60337;BME280;46978;50.288;28.624;2023-12-28T04:18:35;99699.66;;;-2.69;96.97
60337;BME280;46978;50.288;28.624;2023-12-28T04:19:37;99697.98;;;-2.69;97.14
60337;BME280;46978;50.288;28.624;2023-12-28T04:20:44;99702.14;;;-2.71;97.00
60337;BME280;46978;50.288;28.624;2023-12-28T04:21:45;99701.25;;;-2.72;97.39
60337;BME280;46978;50.288;28.624;2023-12-28T04:22:47;99692.77;;;-2.72;97.61
60337;BME280;46978;50.288;28.624;2023-12-28T04:23:49;99701.19;;;-2.73;97.84
60337;BME280;46978;50.288;28.624;2023-12-28T04:24:50;99696.05;;;-2.75;97.68
60337;BME280;46978;50.288;28.624;2023-12-28T04:25:52;99695.19;;;-2.75;97.67
60337;BME280;46978;50.288;28.624;2023-12-28T04:26:54;99694.33;;;-2.76;97.55
60337;BME280;46978;50.288;28.624;2023-12-28T04:27:56;99690.84;;;-2.78;97.70
60337;BME280;46978;50.288;28.624;2023-12-28T04:28:58;99688.30;;;-2.78;97.91
60337;BME280;46978;50.288;28.624;2023-12-28T04:29:59;99679.03;;;-2.77;98.03
60337;BME280;46978;50.288;28.624;2023-12-28T04:31:06;99686.65;;;-2.77;98.29
60337;BME280;46978;50.288;28.624;2023-12-28T04:32:08;99687.50;;;-2.77;98.50
60337;BME280;46978;50.288;28.624;2023-12-28T04:33:09;99684.97;;;-2.77;98.72
60337;BME280;46978;50.288;28.624;2023-12-28T04:34:11;99686.65;;;-2.77;98.61
60337;BME280;46978;50.288;28.624;2023-12-28T04:35:13;99681.51;;;-2.79;98.86
60337;BME280;46978;50.288;28.624;2023-12-28T04:36:15;99681.51;;;-2.79;98.92
60337;BME280;46978;50.288;28.624;2023-12-28T04:37:17;99680.56;;;-2.81;98.86
60337;BME280;46978;50.288;28.624;2023-12-28T04:38:18;99678.02;;;-2.81;99.18
60337;BME280;46978;50.288;28.624;2023-12-28T04:39:20;99676.30;;;-2.82;99.75
60337;BME280;46978;50.288;28.624;2023-12-28T04:40:23;99684.78;;;-2.81;99.71
60337;BME280;46978;50.288;28.624;2023-12-28T04:41:25;99689.92;;;-2.80;100.00
60337;BME280;46978;50.288;28.624;2023-12-28T04:42:26;99689.06;;;-2.80;100.00
60337;BME280;46978;50.288;28.624;2023-12-28T04:43:28;99687.38;;;-2.80;100.00
60337;BME280;46978;50.288;28.624;2023-12-28T04:44:30;99687.38;;;-2.80;100.00
60337;BME280;46978;50.288;28.624;2023-12-28T04:45:31;99687.38;;;-2.80;100.00
60337;BME280;46978;50.288;28.624;2023-12-28T04:46:38;99671.41;;;-2.77;100.00
60337;BME280;46978;50.288;28.624;2023-12-28T04:47:40;99676.49;;;-2.77;100.00
60337;BME280;46978;50.288;28.624;2023-12-28T04:48:41;99677.34;;;-2.77;100.00
60337;BME280;46978;50.288;28.624;2023-12-28T04:49:43;99676.49;;;-2.77;100.00
60337;BME280;46978;50.288;28.624;2023-12-28T04:50:45;99680.74;;;-2.76;100.00
60337;BME280;46978;50.288;28.624;2023-12-28T04:51:46;99682.36;;;-2.78;100.00
60337;BME280;46978;50.288;28.624;2023-12-28T04:52:48;99681.51;;;-2.79;100.00
60337;BME280;46978;50.288;28.624;2023-12-28T04:53:49;99684.91;;;-2.78;100.00
60337;BME280;46978;50.288;28.624;2023-12-28T04:54:51;99684.97;;;-2.77;100.00
60337;BME280;46978;50.288;28.624;2023-12-28T04:55:55;99682.42;;;-2.77;100.00
60337;BME280;46978;50.288;28.624;2023-12-28T04:56:57;99686.71;;;-2.76;100.00
60337;BME280;46978;50.288;28.624;2023-12-28T04:57:59;99687.57;;;-2.75;100.00
60337;BME280;46978;50.288;28.624;2023-12-28T04:59:00;99689.25;;;-2.76;100.00
60337;BME280;46978;50.288;28.624;2023-12-28T05:00:03;99684.97;;;-2.77;100.00
60337;BME280;46978;50.288;28.624;2023-12-28T05:01:05;99684.97;;;-2.77;100.00
60337;BME280;46978;50.288;28.624;2023-12-28T05:02:07;99684.11;;;-2.77;100.00
60337;BME280;46978;50.288;28.624;2023-12-28T05:03:08;99675.60;;;-2.78;100.00
60337;BME280;46978;50.288;28.624;2023-12-28T05:04:10;99685.83;;;-2.76;100.00
60337;BME280;46978;50.288;28.624;2023-12-28T05:05:12;99669.73;;;-2.77;100.00
60337;BME280;46978;50.288;28.624;2023-12-28T05:06:15;99671.41;;;-2.77;100.00
60337;BME280;46978;50.288;28.624;2023-12-28T05:07:17;99672.20;;;-2.78;100.00
60337;BME280;46978;50.288;28.624;2023-12-28T05:08:18;99673.95;;;-2.77;100.00
60337;BME280;46978;50.288;28.624;2023-12-28T05:09:20;99673.95;;;-2.77;100.00
60337;BME280;46978;50.288;28.624;2023-12-28T05:10:22;99681.57;;;-2.77;100.00
60337;BME280;46978;50.288;28.624;2023-12-28T05:11:24;99684.97;;;-2.77;100.00
60337;BME280;46978;50.288;28.624;2023-12-28T05:12:25;99679.03;;;-2.77;100.00
60337;BME280;46978;50.288;28.624;2023-12-28T05:13:27;99679.89;;;-2.77;100.00
60337;BME280;46978;50.288;28.624;2023-12-28T05:14:29;99676.55;;;-2.76;100.00
60337;BME280;46978;50.288;28.624;2023-12-28T05:15:30;99676.55;;;-2.76;100.00
60337;BME280;46978;50.288;28.624;2023-12-28T05:16:32;99673.25;;;-2.73;100.00
60337;BME280;46978;50.288;28.624;2023-12-28T05:17:34;99672.39;;;-2.74;100.00
60337;BME280;46978;50.288;28.624;2023-12-28T05:18:35;99674.99;;;-2.72;100.00
60337;BME280;46978;50.288;28.624;2023-12-28T05:19:37;99678.39;;;-2.72;100.00
60337;BME280;46978;50.288;28.624;2023-12-28T05:20:39;99677.59;;;-2.71;100.00
60337;BME280;46978;50.288;28.624;2023-12-28T05:21:40;99672.52;;;-2.71;100.00
60337;BME280;46978;50.288;28.624;2023-12-28T05:22:42;99675.05;;;-2.71;100.00
60337;BME280;46978;50.288;28.624;2023-12-28T05:24:48;99678.45;;;-2.70;100.00
60337;BME280;46978;50.288;28.624;2023-12-28T05:25:50;99677.72;;;-2.67;100.00